createdAt,value
2023-08-17T00:00:31.466Z,20.38
2023-08-17T00:01:31.588Z,20.38
2023-08-17T00:02:31.630Z,20.38
2023-08-17T00:03:31.742Z,20.35
2023-08-17T00:04:31.776Z,20.34
2023-08-17T00:05:31.841Z,20.35
2023-08-17T00:06:31.919Z,20.37
2023-08-17T00:07:32.008Z,20.35
2023-08-17T00:08:32.108Z,20.35
2023-08-17T00:09:32.143Z,20.35
2023-08-17T00:10:32.224Z,20.34
2023-08-17T00:11:32.328Z,20.34
2023-08-17T00:12:32.401Z,20.33
2023-08-17T00:13:32.432Z,20.31
2023-08-17T00:14:32.510Z,20.31
2023-08-17T00:15:32.595Z,20.27
2023-08-17T00:16:32.717Z,20.31
2023-08-17T00:17:32.774Z,20.30
2023-08-17T00:18:32.820Z,20.27
2023-08-17T00:19:32.911Z,20.30
2023-08-17T00:20:32.977Z,20.26
2023-08-17T00:21:33.037Z,20.26
2023-08-17T00:22:33.139Z,20.23
2023-08-17T00:23:33.197Z,20.20
2023-08-17T00:24:33.282Z,20.20
2023-08-17T00:25:33.383Z,20.19
2023-08-17T00:26:33.446Z,20.20
2023-08-17T00:27:33.564Z,20.20
2023-08-17T00:28:33.608Z,20.16
2023-08-17T00:29:33.705Z,20.15
2023-08-17T00:30:33.772Z,20.16
2023-08-17T00:31:33.876Z,20.12
2023-08-17T00:32:33.964Z,20.12
2023-08-17T00:33:34.009Z,20.12
2023-08-17T00:34:34.102Z,20.15
2023-08-17T00:35:34.176Z,20.12
2023-08-17T00:36:34.261Z,20.12
2023-08-17T00:37:34.364Z,20.10
2023-08-17T00:38:34.442Z,20.07
2023-08-17T00:39:34.522Z,20.08
2023-08-17T00:40:34.635Z,20.10
2023-08-17T00:41:34.695Z,20.13
2023-08-17T00:42:34.775Z,20.13
2023-08-17T00:43:34.854Z,20.12
2023-08-17T00:44:34.925Z,20.12
2023-08-17T00:45:35.008Z,20.10
2023-08-17T00:46:35.098Z,20.10
2023-08-17T00:47:35.259Z,20.10
2023-08-17T00:48:35.289Z,20.12
2023-08-17T00:49:35.331Z,20.10
2023-08-17T00:50:35.400Z,20.10
2023-08-17T00:51:35.474Z,20.10
2023-08-17T00:52:35.556Z,20.12
2023-08-17T00:53:35.595Z,20.10
2023-08-17T00:54:35.675Z,20.08
2023-08-17T00:55:35.760Z,20.08
2023-08-17T00:56:35.812Z,20.08
2023-08-17T00:57:35.919Z,20.10
2023-08-17T00:58:35.989Z,20.10
2023-08-17T00:59:37.206Z,20.12
2023-08-17T01:00:36.154Z,20.12
2023-08-17T01:01:36.246Z,20.12
2023-08-17T01:02:36.344Z,20.12
2023-08-17T01:03:36.391Z,20.13
2023-08-17T01:04:36.493Z,20.15
2023-08-17T01:05:36.552Z,20.16
2023-08-17T01:06:36.622Z,20.17
2023-08-17T01:07:36.715Z,20.17
2023-08-17T01:08:36.788Z,20.17
2023-08-17T01:09:36.864Z,20.20
2023-08-17T01:10:36.941Z,20.22
2023-08-17T01:11:37.045Z,20.22
2023-08-17T01:12:37.138Z,20.20
2023-08-17T01:13:37.199Z,20.20
2023-08-17T01:14:37.272Z,20.20
2023-08-17T01:15:37.413Z,20.20
2023-08-17T01:16:37.425Z,20.20
2023-08-17T01:17:37.534Z,20.19
2023-08-17T01:18:37.655Z,20.19
2023-08-17T01:19:37.683Z,20.19
2023-08-17T01:20:37.758Z,20.19
2023-08-17T01:21:37.838Z,20.20
2023-08-17T01:22:37.923Z,20.20
2023-08-17T01:23:37.975Z,20.20
2023-08-17T01:24:38.045Z,20.20
2023-08-17T01:25:38.120Z,20.19
2023-08-17T01:26:38.193Z,20.19
2023-08-17T01:27:38.289Z,20.17
2023-08-17T01:28:38.351Z,20.20
2023-08-17T01:29:38.426Z,20.19
2023-08-17T01:30:38.508Z,20.20
2023-08-17T01:31:38.643Z,20.19
2023-08-17T01:32:38.730Z,20.16
2023-08-17T01:33:38.729Z,20.16
2023-08-17T01:34:38.796Z,20.15
2023-08-17T01:35:38.864Z,20.13
2023-08-17T01:36:38.970Z,20.12
2023-08-17T01:37:39.024Z,20.10
2023-08-17T01:38:39.118Z,20.12
2023-08-17T01:39:39.186Z,20.10
2023-08-17T01:40:39.264Z,20.10
2023-08-17T01:41:39.342Z,20.12
2023-08-17T01:42:39.450Z,20.10
2023-08-17T01:43:39.535Z,20.07
2023-08-17T01:44:39.623Z,20.07
2023-08-17T01:45:39.690Z,20.07
2023-08-17T01:46:39.791Z,20.08
2023-08-17T01:47:39.918Z,20.08
2023-08-17T01:48:39.946Z,20.12
2023-08-17T01:49:40.049Z,20.10
2023-08-17T01:50:40.148Z,20.08
2023-08-17T01:51:40.234Z,20.07
2023-08-17T01:52:40.313Z,20.05
2023-08-17T01:53:40.379Z,20.04
2023-08-17T01:54:40.450Z,20.02
2023-08-17T01:55:40.546Z,20.02
2023-08-17T01:56:40.610Z,20.04
2023-08-17T01:57:40.711Z,20.04
2023-08-17T01:58:40.786Z,20.04
2023-08-17T01:59:40.877Z,20.05
2023-08-17T02:00:40.977Z,20.02
2023-08-17T02:01:41.005Z,20.04
2023-08-17T02:02:41.198Z,20.04
2023-08-17T02:03:41.204Z,20.05
2023-08-17T02:04:41.291Z,20.07
2023-08-17T02:05:41.373Z,20.08
2023-08-17T02:06:41.471Z,20.07
2023-08-17T02:07:41.591Z,20.10
2023-08-17T02:08:41.626Z,20.10
2023-08-17T02:09:41.723Z,20.08
2023-08-17T02:10:41.803Z,20.08
2023-08-17T02:11:41.900Z,20.10
2023-08-17T02:12:42.008Z,20.10
2023-08-17T02:13:42.055Z,20.08
2023-08-17T02:14:42.145Z,20.10
2023-08-17T02:15:42.238Z,20.10
2023-08-17T02:16:42.345Z,20.10
2023-08-17T02:17:42.432Z,20.10
2023-08-17T02:18:42.498Z,20.07
2023-08-17T02:19:42.578Z,20.07
2023-08-17T02:20:42.652Z,20.10
2023-08-17T02:21:42.742Z,20.08
2023-08-17T02:22:42.830Z,20.04
2023-08-17T02:23:42.905Z,20.05
2023-08-17T02:24:43.011Z,20.05
2023-08-17T02:25:43.085Z,20.07
2023-08-17T02:26:43.177Z,20.02
2023-08-17T02:27:43.261Z,20.00
2023-08-17T02:28:43.304Z,19.95
2023-08-17T02:29:43.377Z,19.90
2023-08-17T02:30:43.502Z,19.92
2023-08-17T02:31:43.565Z,19.89
2023-08-17T02:32:43.681Z,19.85
2023-08-17T02:33:43.721Z,19.83
2023-08-17T02:34:43.794Z,19.83
2023-08-17T02:35:43.965Z,19.86
2023-08-17T02:36:43.966Z,19.86
2023-08-17T02:37:44.061Z,19.85
2023-08-17T02:38:44.144Z,19.85
2023-08-17T02:39:44.216Z,19.86
2023-08-17T02:40:44.360Z,19.83
2023-08-17T02:41:44.381Z,19.80
2023-08-17T02:42:44.481Z,19.83
2023-08-17T02:43:44.552Z,19.80
2023-08-17T02:44:44.612Z,19.76
2023-08-17T02:45:44.702Z,19.75
2023-08-17T02:46:44.782Z,19.75
2023-08-17T02:47:44.871Z,19.75
2023-08-17T02:48:44.945Z,19.72
2023-08-17T02:49:45.028Z,19.71
2023-08-17T02:50:45.088Z,19.75
2023-08-17T02:51:45.189Z,19.76
2023-08-17T02:52:45.291Z,19.76
2023-08-17T02:53:45.334Z,19.76
2023-08-17T02:54:45.420Z,19.78
2023-08-17T02:55:45.494Z,19.76
2023-08-17T02:56:45.584Z,19.75
2023-08-17T02:57:45.662Z,19.71
2023-08-17T02:58:45.764Z,19.72
2023-08-17T02:59:45.838Z,19.78
2023-08-17T03:00:45.921Z,19.76
2023-08-17T03:01:46.023Z,19.79
2023-08-17T03:02:46.233Z,19.79
2023-08-17T03:03:46.207Z,19.80
2023-08-17T03:04:46.290Z,19.80
2023-08-17T03:05:46.338Z,19.82
2023-08-17T03:06:46.426Z,19.80
2023-08-17T03:07:46.516Z,19.78
2023-08-17T03:08:46.592Z,19.79
2023-08-17T03:09:46.666Z,19.79
2023-08-17T03:10:46.766Z,19.78
2023-08-17T03:11:46.857Z,19.79
2023-08-17T03:12:46.968Z,19.78
2023-08-17T03:13:47.023Z,19.78
2023-08-17T03:14:47.114Z,19.78
2023-08-17T03:15:47.205Z,19.78
2023-08-17T03:16:47.314Z,19.76
2023-08-17T03:17:47.444Z,19.76
2023-08-17T03:18:47.463Z,19.78
2023-08-17T03:19:47.555Z,19.78
2023-08-17T03:20:47.630Z,19.78
2023-08-17T03:21:47.720Z,19.78
2023-08-17T03:22:47.827Z,19.76
2023-08-17T03:23:47.899Z,19.76
2023-08-17T03:24:47.992Z,19.78
2023-08-17T03:25:48.082Z,19.78
2023-08-17T03:26:48.182Z,19.76
2023-08-17T03:27:48.279Z,19.79
2023-08-17T03:28:48.360Z,19.79
2023-08-17T03:29:48.452Z,19.79
2023-08-17T03:30:48.555Z,19.80
2023-08-17T03:31:48.623Z,19.80
2023-08-17T03:32:48.780Z,19.83
2023-08-17T03:33:48.793Z,19.82
2023-08-17T03:34:48.932Z,19.83
2023-08-17T03:35:48.984Z,19.83
2023-08-17T03:36:49.072Z,19.85
2023-08-17T03:37:49.176Z,19.85
2023-08-17T03:38:49.258Z,19.85
2023-08-17T03:39:49.347Z,19.83
2023-08-17T03:40:49.432Z,19.83
2023-08-17T03:41:49.510Z,19.83
2023-08-17T03:42:49.638Z,19.86
2023-08-17T03:43:49.649Z,19.85
2023-08-17T03:44:49.735Z,19.87
2023-08-17T03:45:49.829Z,19.87
2023-08-17T03:46:49.884Z,19.87
2023-08-17T03:47:50.017Z,19.89
2023-08-17T03:48:50.048Z,19.89
2023-08-17T03:49:50.129Z,19.89
2023-08-17T03:50:50.221Z,19.90
2023-08-17T03:51:50.277Z,19.89
2023-08-17T03:52:50.367Z,19.90
2023-08-17T03:53:50.457Z,19.90
2023-08-17T03:54:50.547Z,19.92
2023-08-17T03:55:50.654Z,19.90
2023-08-17T03:56:50.748Z,19.89
2023-08-17T03:57:50.867Z,19.87
2023-08-17T03:58:50.910Z,19.82
2023-08-17T03:59:50.996Z,19.82
2023-08-17T04:00:51.073Z,19.79
2023-08-17T04:01:51.200Z,19.78
2023-08-17T04:02:51.301Z,19.78
2023-08-17T04:03:51.341Z,19.76
2023-08-17T04:04:51.461Z,19.75
2023-08-17T04:05:51.515Z,19.72
2023-08-17T04:06:51.588Z,19.70
2023-08-17T04:07:51.652Z,19.71
2023-08-17T04:08:51.700Z,19.67
2023-08-17T04:09:51.798Z,19.67
2023-08-17T04:10:51.862Z,19.68
2023-08-17T04:11:51.926Z,19.68
2023-08-17T04:12:52.045Z,19.65
2023-08-17T04:13:52.094Z,19.67
2023-08-17T04:14:52.194Z,19.67
2023-08-17T04:15:52.291Z,19.65
2023-08-17T04:16:52.388Z,19.65
2023-08-17T04:17:52.519Z,19.67
2023-08-17T04:18:52.541Z,19.65
2023-08-17T04:19:52.589Z,19.64
2023-08-17T04:20:55.024Z,19.64
2023-08-17T04:21:52.767Z,19.62
2023-08-17T04:22:53.102Z,19.60
2023-08-17T04:23:52.937Z,19.60
2023-08-17T04:24:53.034Z,19.58
2023-08-17T04:25:53.101Z,19.58
2023-08-17T04:26:53.163Z,19.58
2023-08-17T04:27:53.246Z,19.58
2023-08-17T04:28:53.289Z,19.58
2023-08-17T04:29:53.361Z,19.60
2023-08-17T04:30:53.462Z,19.60
2023-08-17T04:31:53.581Z,19.60
2023-08-17T04:32:53.909Z,19.61
2023-08-17T04:33:53.704Z,19.60
2023-08-17T04:34:54.866Z,19.60
2023-08-17T04:35:53.859Z,19.60
2023-08-17T04:36:53.954Z,19.58
2023-08-17T04:37:54.039Z,19.60
2023-08-17T04:38:54.087Z,19.57
2023-08-17T04:39:54.168Z,19.55
2023-08-17T04:40:54.264Z,19.57
2023-08-17T04:41:54.350Z,19.55
2023-08-17T04:42:54.459Z,19.50
2023-08-17T04:43:54.493Z,19.52
2023-08-17T04:44:54.580Z,19.52
2023-08-17T04:45:54.721Z,19.50
2023-08-17T04:46:54.766Z,19.52
2023-08-17T04:47:54.892Z,19.52
2023-08-17T04:48:54.946Z,19.46
2023-08-17T04:49:55.009Z,19.46
2023-08-17T04:50:55.113Z,19.45
2023-08-17T04:51:55.229Z,19.43
2023-08-17T04:52:55.322Z,19.42
2023-08-17T04:53:55.376Z,19.40
2023-08-17T04:54:55.432Z,19.39
2023-08-17T04:55:55.522Z,19.35
2023-08-17T04:56:55.612Z,19.35
2023-08-17T04:57:55.721Z,19.38
2023-08-17T04:58:55.774Z,19.39
2023-08-17T04:59:55.871Z,19.40
2023-08-17T05:00:55.960Z,19.40
2023-08-17T05:01:56.005Z,19.39
2023-08-17T05:02:56.153Z,19.38
2023-08-17T05:03:56.200Z,19.34
2023-08-17T05:04:56.233Z,19.34
2023-08-17T05:05:56.315Z,19.35
2023-08-17T05:06:56.395Z,19.32
2023-08-17T05:07:56.476Z,19.27
2023-08-17T05:08:56.561Z,19.27
2023-08-17T05:09:56.642Z,19.27
2023-08-17T05:10:56.864Z,19.25
2023-08-17T05:11:56.805Z,19.27
2023-08-17T05:12:56.928Z,19.24
2023-08-17T05:13:56.961Z,19.24
2023-08-17T05:14:57.041Z,19.21
2023-08-17T05:15:57.149Z,19.23
2023-08-17T05:16:57.213Z,19.21
2023-08-17T05:17:57.328Z,19.23
2023-08-17T05:18:57.410Z,19.20
2023-08-17T05:19:57.465Z,19.17
2023-08-17T05:20:57.575Z,19.20
2023-08-17T05:21:57.662Z,19.20
2023-08-17T05:22:57.784Z,19.16
2023-08-17T05:23:57.813Z,19.16
2023-08-17T05:24:57.913Z,19.20
2023-08-17T05:25:57.970Z,19.17
2023-08-17T05:26:58.079Z,19.16
2023-08-17T05:27:58.183Z,19.16
2023-08-17T05:28:58.372Z,19.20
2023-08-17T05:29:58.374Z,19.17
2023-08-17T05:30:58.456Z,19.20
2023-08-17T05:31:58.510Z,19.20
2023-08-17T05:32:58.647Z,19.21
2023-08-17T05:33:58.664Z,19.20
2023-08-17T05:34:58.762Z,19.20
2023-08-17T05:35:58.832Z,19.20
2023-08-17T05:36:58.938Z,19.17
2023-08-17T05:37:59.057Z,19.20
2023-08-17T05:38:59.096Z,19.20
2023-08-17T05:39:59.185Z,19.20
2023-08-17T05:40:59.286Z,19.20
2023-08-17T05:41:59.358Z,19.20
2023-08-17T05:42:59.475Z,19.17
2023-08-17T05:43:59.524Z,19.17
2023-08-17T05:44:59.621Z,19.16
2023-08-17T05:45:59.715Z,19.17
2023-08-17T05:46:59.810Z,19.15
2023-08-17T05:47:59.950Z,19.15
2023-08-17T05:48:59.936Z,19.16
2023-08-17T05:50:00.057Z,19.17
2023-08-17T05:51:00.113Z,19.20
2023-08-17T05:52:00.202Z,19.20
2023-08-17T05:53:00.316Z,19.16
2023-08-17T05:54:00.362Z,19.17
2023-08-17T05:55:00.474Z,19.16
2023-08-17T05:56:00.529Z,19.13
2023-08-17T05:57:00.712Z,19.15
2023-08-17T05:58:00.732Z,19.17
2023-08-17T05:59:00.812Z,19.20
2023-08-17T06:00:00.878Z,19.20
2023-08-17T06:01:00.981Z,19.21
2023-08-17T06:02:01.026Z,19.20
2023-08-17T06:03:01.207Z,19.17
2023-08-17T06:04:01.215Z,19.20
2023-08-17T06:05:01.307Z,19.17
2023-08-17T06:06:01.393Z,19.17
2023-08-17T06:07:01.459Z,19.20
2023-08-17T06:08:01.557Z,19.20
2023-08-17T06:09:01.602Z,19.17
2023-08-17T06:10:01.699Z,19.21
2023-08-17T06:11:01.763Z,19.16
2023-08-17T06:12:01.842Z,19.16
2023-08-17T06:13:01.947Z,19.20
2023-08-17T06:14:02.012Z,19.15
2023-08-17T06:15:02.074Z,19.15
2023-08-17T06:16:02.171Z,19.15
2023-08-17T06:17:02.252Z,19.13
2023-08-17T06:18:02.455Z,19.15
2023-08-17T06:19:02.395Z,19.16
2023-08-17T06:20:02.484Z,19.17
2023-08-17T06:21:02.586Z,19.17
2023-08-17T06:22:02.664Z,19.23
2023-08-17T06:23:02.760Z,19.24
2023-08-17T06:24:02.862Z,19.27
2023-08-17T06:25:02.915Z,19.25
2023-08-17T06:26:03.022Z,19.27
2023-08-17T06:27:03.126Z,19.28
2023-08-17T06:28:03.211Z,19.30
2023-08-17T06:29:04.456Z,19.34
2023-08-17T06:30:03.323Z,19.35
2023-08-17T06:31:03.471Z,19.38
2023-08-17T06:32:03.487Z,19.40
2023-08-17T06:33:03.621Z,19.43
2023-08-17T06:34:03.643Z,19.45
2023-08-17T06:35:03.729Z,19.43
2023-08-17T06:36:03.812Z,19.46
2023-08-17T06:37:03.905Z,19.49
2023-08-17T06:38:03.996Z,19.47
2023-08-17T06:39:04.070Z,19.49
2023-08-17T06:40:04.150Z,19.50
2023-08-17T06:41:04.226Z,19.49
2023-08-17T06:42:04.316Z,19.49
2023-08-17T06:43:04.407Z,19.50
2023-08-17T06:44:04.496Z,19.49
2023-08-17T06:45:04.564Z,19.47
2023-08-17T06:46:04.666Z,19.50
2023-08-17T06:47:04.735Z,19.49
2023-08-17T06:48:04.851Z,19.52
2023-08-17T06:49:04.857Z,19.57
2023-08-17T06:50:04.968Z,19.61
2023-08-17T06:51:05.033Z,19.62
2023-08-17T06:52:05.107Z,19.62
2023-08-17T06:53:05.206Z,19.65
2023-08-17T06:54:05.271Z,19.68
2023-08-17T06:55:05.337Z,19.72
2023-08-17T06:56:05.442Z,19.72
2023-08-17T06:57:05.516Z,19.75
2023-08-17T06:58:05.596Z,19.72
2023-08-17T06:59:05.645Z,19.75
2023-08-17T07:00:05.723Z,19.79
2023-08-17T07:01:05.801Z,19.82
2023-08-17T07:02:05.936Z,19.86
2023-08-17T07:03:06.069Z,19.87
2023-08-17T07:04:06.068Z,19.90
2023-08-17T07:05:06.155Z,19.92
2023-08-17T07:06:06.255Z,19.95
2023-08-17T07:07:06.350Z,19.94
2023-08-17T07:08:06.467Z,19.89
2023-08-17T07:09:06.657Z,19.89
2023-08-17T07:10:06.614Z,19.86
2023-08-17T07:11:06.712Z,19.90
2023-08-17T07:12:06.807Z,19.95
2023-08-17T07:13:06.918Z,19.97
2023-08-17T07:14:06.958Z,20.00
2023-08-17T07:15:07.018Z,20.01
2023-08-17T07:16:07.138Z,20.04
2023-08-17T07:17:07.207Z,20.05
2023-08-17T07:18:07.354Z,20.05
2023-08-17T07:19:07.353Z,20.07
2023-08-17T07:20:16.333Z,20.08
2023-08-17T07:21:07.510Z,20.10
2023-08-17T07:22:07.583Z,20.10
2023-08-17T07:23:07.684Z,20.13
2023-08-17T07:24:07.744Z,20.15
2023-08-17T07:25:07.839Z,20.13
2023-08-17T07:26:08.277Z,20.15
2023-08-17T07:27:08.018Z,20.17
2023-08-17T07:28:08.131Z,20.23
2023-08-17T07:29:08.171Z,20.27
2023-08-17T07:30:08.303Z,20.33
2023-08-17T07:31:08.322Z,20.31
2023-08-17T07:32:08.468Z,20.27
2023-08-17T07:33:08.566Z,20.33
2023-08-17T07:34:08.591Z,20.34
2023-08-17T07:35:08.684Z,20.35
2023-08-17T07:36:08.765Z,20.37
2023-08-17T07:37:08.854Z,20.41
2023-08-17T07:38:09.816Z,20.46
2023-08-17T07:39:09.016Z,20.50
2023-08-17T07:40:09.108Z,20.51
2023-08-17T07:41:09.205Z,20.54
2023-08-17T07:42:09.339Z,20.57
2023-08-17T07:43:09.412Z,20.58
2023-08-17T07:44:09.453Z,20.54
2023-08-17T07:45:09.532Z,20.54
2023-08-17T07:46:09.736Z,20.57
2023-08-17T07:47:09.692Z,20.63
2023-08-17T07:48:09.830Z,20.66
2023-08-17T07:49:15.927Z,20.64
2023-08-17T07:50:09.990Z,20.66
2023-08-17T07:51:09.994Z,20.69
2023-08-17T07:52:10.069Z,20.69
2023-08-17T07:53:10.176Z,20.72
2023-08-17T07:54:10.229Z,20.72
2023-08-17T07:55:10.298Z,20.79
2023-08-17T07:56:10.390Z,20.83
2023-08-17T07:57:10.472Z,20.87
2023-08-17T07:58:10.582Z,20.88
2023-08-17T07:59:10.705Z,20.87
2023-08-17T08:00:10.757Z,20.83
2023-08-17T08:01:10.895Z,20.82
2023-08-17T08:02:10.900Z,20.78
2023-08-17T08:03:11.076Z,20.76
2023-08-17T08:04:11.077Z,20.76
2023-08-17T08:05:11.184Z,20.76
2023-08-17T08:06:11.224Z,20.79
2023-08-17T08:07:11.311Z,20.79
2023-08-17T08:08:11.406Z,20.83
2023-08-17T08:09:11.484Z,20.78
2023-08-17T08:10:11.571Z,20.75
2023-08-17T08:11:11.646Z,20.75
2023-08-17T08:12:11.726Z,20.78
2023-08-17T08:13:11.817Z,20.81
2023-08-17T08:14:11.896Z,20.90
2023-08-17T08:15:11.983Z,21.00
2023-08-17T08:16:12.090Z,21.08
2023-08-17T08:17:12.134Z,21.15
2023-08-17T08:18:12.302Z,21.21
2023-08-17T08:19:12.275Z,21.31
2023-08-17T08:20:12.355Z,21.36
2023-08-17T08:21:12.424Z,21.42
2023-08-17T08:22:12.515Z,21.46
2023-08-17T08:23:12.605Z,21.48
2023-08-17T08:24:22.411Z,21.46
2023-08-17T08:25:12.756Z,21.48
2023-08-17T08:26:12.844Z,21.51
2023-08-17T08:27:12.903Z,21.55
2023-08-17T08:28:12.989Z,21.55
2023-08-17T08:29:13.064Z,21.53
2023-08-17T08:30:13.188Z,21.46
2023-08-17T08:31:13.380Z,21.40
2023-08-17T08:32:13.317Z,21.43
2023-08-17T08:33:13.859Z,21.49
2023-08-17T08:34:13.465Z,21.55
2023-08-17T08:35:13.538Z,21.59
2023-08-17T08:36:13.723Z,21.58
2023-08-17T08:37:13.694Z,21.56
2023-08-17T08:38:13.757Z,21.55
2023-08-17T08:39:13.876Z,21.56
2023-08-17T08:40:13.936Z,21.53
2023-08-17T08:41:14.058Z,21.53
2023-08-17T08:42:14.109Z,21.53
2023-08-17T08:43:14.209Z,21.56
2023-08-17T08:44:14.308Z,21.61
2023-08-17T08:45:14.375Z,21.66
2023-08-17T08:46:14.545Z,21.68
2023-08-17T08:47:14.540Z,21.70
2023-08-17T08:48:14.694Z,21.73
2023-08-17T08:49:14.701Z,21.74
2023-08-17T08:50:14.770Z,21.77
2023-08-17T08:51:14.862Z,21.85
2023-08-17T08:52:14.960Z,21.93
2023-08-17T08:53:15.055Z,22.01
2023-08-17T08:54:15.200Z,22.05
2023-08-17T08:55:15.253Z,22.09
2023-08-17T08:56:15.381Z,22.14
2023-08-17T08:57:15.417Z,22.19
2023-08-17T08:58:15.513Z,22.23
2023-08-17T08:59:15.599Z,22.29
2023-08-17T09:00:15.655Z,22.33
2023-08-17T09:01:15.792Z,22.41
2023-08-17T09:02:15.816Z,22.45
2023-08-17T09:03:15.934Z,22.48
2023-08-17T09:04:15.994Z,22.42
2023-08-17T09:05:16.064Z,22.33
2023-08-17T09:06:16.149Z,22.35
2023-08-17T09:07:16.234Z,22.39
2023-08-17T09:08:17.857Z,22.41
2023-08-17T09:09:16.417Z,22.39
2023-08-17T09:10:16.465Z,22.38
2023-08-17T09:11:16.550Z,22.35
2023-08-17T09:12:23.421Z,22.38
2023-08-17T09:13:16.721Z,22.41
2023-08-17T09:14:16.821Z,22.38
2023-08-17T09:15:16.863Z,22.38
2023-08-17T09:16:16.981Z,22.38
2023-08-17T09:17:19.618Z,22.39
2023-08-17T09:18:17.188Z,22.38
2023-08-17T09:19:17.227Z,22.42
2023-08-17T09:20:17.275Z,22.41
2023-08-17T09:21:17.371Z,22.39
2023-08-17T09:22:17.466Z,22.44
2023-08-17T09:23:17.627Z,22.49
2023-08-17T09:24:17.651Z,22.57
2023-08-17T09:25:17.703Z,22.66
2023-08-17T09:26:17.839Z,22.74
2023-08-17T09:27:17.884Z,22.78
2023-08-17T09:28:17.950Z,22.84
2023-08-17T09:29:18.080Z,22.84
2023-08-17T09:30:19.579Z,22.88
2023-08-17T09:31:18.268Z,22.89
2023-08-17T09:32:18.278Z,22.79
2023-08-17T09:33:18.327Z,22.74
2023-08-17T09:34:18.404Z,22.74
2023-08-17T09:35:18.500Z,22.74
2023-08-17T09:36:18.575Z,22.69
2023-08-17T09:37:18.670Z,22.54
2023-08-17T09:38:18.741Z,22.48
2023-08-17T09:39:18.847Z,22.46
2023-08-17T09:40:22.231Z,22.51
2023-08-17T09:41:19.000Z,22.44
2023-08-17T09:42:19.069Z,22.42
2023-08-17T09:43:19.209Z,22.45
2023-08-17T09:44:19.239Z,22.45
2023-08-17T09:45:19.296Z,22.46
2023-08-17T09:46:19.394Z,22.48
2023-08-17T09:47:19.457Z,22.52
2023-08-17T09:48:19.539Z,22.59
2023-08-17T09:49:19.665Z,22.69
2023-08-17T09:50:19.684Z,22.78
2023-08-17T09:51:19.774Z,22.88
2023-08-17T09:52:19.856Z,22.97
2023-08-17T09:53:19.979Z,22.99
2023-08-17T09:54:20.048Z,22.97
2023-08-17T09:55:20.138Z,22.93
2023-08-17T09:56:20.212Z,22.88
2023-08-17T09:57:22.818Z,22.91
2023-08-17T09:58:20.387Z,22.85
2023-08-17T09:59:20.510Z,22.75
2023-08-17T10:00:20.538Z,22.69
2023-08-17T10:01:20.657Z,22.66
2023-08-17T10:02:20.687Z,22.60
2023-08-17T10:03:21.184Z,22.60
2023-08-17T10:04:20.883Z,22.60
2023-08-17T10:05:22.663Z,22.61
2023-08-17T10:06:26.839Z,22.59
2023-08-17T10:07:21.156Z,22.52
2023-08-17T10:08:21.241Z,22.49
2023-08-17T10:09:21.338Z,22.52
2023-08-17T10:10:21.405Z,22.48
2023-08-17T10:11:21.484Z,22.44
2023-08-17T10:12:21.595Z,22.44
2023-08-17T10:13:21.659Z,22.44
2023-08-17T10:14:21.774Z,22.38
2023-08-17T10:15:21.938Z,22.36
2023-08-17T10:16:21.886Z,22.36
2023-08-17T10:17:21.961Z,22.38
2023-08-17T10:18:22.039Z,22.35
2023-08-17T10:19:22.152Z,22.39
2023-08-17T10:20:22.216Z,22.44
2023-08-17T10:21:22.279Z,22.42
2023-08-17T10:22:22.349Z,22.45
2023-08-17T10:23:22.402Z,22.46
2023-08-17T10:24:22.531Z,22.49
2023-08-17T10:25:22.586Z,22.52
2023-08-17T10:26:22.729Z,22.57
2023-08-17T10:27:22.749Z,22.61
2023-08-17T10:28:22.847Z,22.69
2023-08-17T10:29:22.915Z,22.74
2023-08-17T10:30:22.976Z,22.78
2023-08-17T10:31:23.111Z,22.84
2023-08-17T10:32:23.116Z,22.85
2023-08-17T10:33:23.210Z,22.82
2023-08-17T10:34:23.334Z,22.84
2023-08-17T10:35:23.396Z,22.88
2023-08-17T10:36:23.484Z,22.86
2023-08-17T10:37:23.567Z,22.78
2023-08-17T10:38:23.628Z,22.67
2023-08-17T10:39:27.080Z,22.66
2023-08-17T10:40:23.782Z,22.64
2023-08-17T10:41:23.832Z,22.64
2023-08-17T10:42:23.929Z,22.66
2023-08-17T10:43:24.022Z,22.67
2023-08-17T10:44:26.141Z,22.75
2023-08-17T10:46:24.349Z,22.64
2023-08-17T10:47:24.382Z,22.61
2023-08-17T10:48:24.451Z,22.60
2023-08-17T10:49:24.542Z,22.56
2023-08-17T10:50:24.601Z,22.57
2023-08-17T10:51:24.726Z,22.57
2023-08-17T10:52:25.056Z,22.56
2023-08-17T10:53:24.880Z,22.52
2023-08-17T10:54:25.032Z,22.46
2023-08-17T10:55:25.041Z,22.39
2023-08-17T10:56:25.126Z,22.38
2023-08-17T10:57:25.198Z,22.33
2023-08-17T10:58:25.275Z,22.29
2023-08-17T10:59:25.387Z,22.29
2023-08-17T11:00:25.710Z,22.30
2023-08-17T11:01:25.554Z,22.26
2023-08-17T11:02:25.644Z,22.21
2023-08-17T11:04:25.858Z,22.20
2023-08-17T11:05:25.875Z,22.21
2023-08-17T11:06:25.925Z,22.23
2023-08-17T11:07:26.027Z,22.24
2023-08-17T11:08:26.112Z,22.20
2023-08-17T11:09:26.174Z,22.20
2023-08-17T11:10:26.260Z,22.21
2023-08-17T11:11:26.329Z,22.24
2023-08-17T11:12:26.522Z,22.26
2023-08-17T11:13:26.461Z,22.29
2023-08-17T11:14:26.576Z,22.31
2023-08-17T11:15:26.598Z,22.33
2023-08-17T11:16:26.730Z,22.29
2023-08-17T11:17:26.788Z,22.31
2023-08-17T11:18:26.829Z,22.35
2023-08-17T11:19:26.916Z,22.36
2023-08-17T11:20:26.973Z,22.39
2023-08-17T11:21:27.072Z,22.41
2023-08-17T11:22:27.180Z,22.45
2023-08-17T11:23:27.237Z,22.48
2023-08-17T11:24:29.126Z,22.49
2023-08-17T11:26:27.478Z,22.51
2023-08-17T11:27:27.559Z,22.54
2023-08-17T11:28:27.641Z,22.56
2023-08-17T11:29:27.715Z,22.60
2023-08-17T11:30:27.780Z,22.63
2023-08-17T11:31:27.912Z,22.67
2023-08-17T11:32:28.281Z,22.66
2023-08-17T11:33:28.008Z,22.60
2023-08-17T11:34:28.105Z,22.60
2023-08-17T11:35:28.151Z,22.63
2023-08-17T11:36:28.255Z,22.67
2023-08-17T11:37:28.363Z,22.67
2023-08-17T11:38:28.404Z,22.72
2023-08-17T11:39:28.505Z,22.74
2023-08-17T11:40:28.554Z,22.76
2023-08-17T11:41:28.648Z,22.81
2023-08-17T11:42:29.085Z,22.84
2023-08-17T11:43:28.826Z,22.86
2023-08-17T11:44:28.972Z,22.88
2023-08-17T11:45:29.066Z,22.86
2023-08-17T11:46:29.883Z,22.82
2023-08-17T11:47:32.611Z,22.76
2023-08-17T11:48:29.242Z,22.79
2023-08-17T11:49:29.351Z,22.85
2023-08-17T11:50:29.504Z,22.93
2023-08-17T11:51:29.568Z,22.99
2023-08-17T11:52:29.782Z,23.06
2023-08-17T11:53:29.699Z,23.14
2023-08-17T11:54:29.768Z,23.22
2023-08-17T11:55:29.851Z,23.29
2023-08-17T11:56:29.932Z,23.37
2023-08-17T11:57:30.008Z,23.45
2023-08-17T11:58:30.196Z,23.52
2023-08-17T11:59:30.223Z,23.54
2023-08-17T12:00:30.303Z,23.56
2023-08-17T12:01:30.433Z,23.52
2023-08-17T12:02:30.740Z,23.49
2023-08-17T12:03:30.678Z,23.52
2023-08-17T12:04:30.624Z,23.57
2023-08-17T12:05:30.703Z,23.64
2023-08-17T12:06:30.784Z,23.71
2023-08-17T12:07:30.924Z,23.79
2023-08-17T12:08:30.977Z,23.89
2023-08-17T12:09:31.052Z,23.89
2023-08-17T12:10:31.133Z,23.96
2023-08-17T12:11:31.197Z,23.99
2023-08-17T12:12:31.293Z,24.08
2023-08-17T12:13:31.359Z,24.11
2023-08-17T12:14:31.452Z,24.18
2023-08-17T12:15:31.548Z,24.27
2023-08-17T12:16:31.565Z,24.44
2023-08-17T12:17:31.719Z,24.56
2023-08-17T12:18:31.757Z,24.71
2023-08-17T12:19:31.865Z,24.79
2023-08-17T12:20:31.883Z,24.86
2023-08-17T12:21:31.996Z,25.02
2023-08-17T12:22:32.042Z,25.12
2023-08-17T12:23:32.145Z,25.22
2023-08-17T12:24:32.260Z,25.35
2023-08-17T12:25:32.321Z,25.45
2023-08-17T12:26:32.414Z,25.41
2023-08-17T12:27:32.474Z,25.45
2023-08-17T12:28:32.540Z,25.38
2023-08-17T12:29:32.615Z,25.36
2023-08-17T12:30:32.798Z,25.26
2023-08-17T12:31:32.811Z,25.24
2023-08-17T12:32:32.896Z,25.22
2023-08-17T12:33:32.942Z,25.08
2023-08-17T12:34:33.119Z,25.05
2023-08-17T12:35:33.152Z,24.99
2023-08-17T12:36:33.207Z,25.07
2023-08-17T12:37:33.285Z,25.14
2023-08-17T12:38:33.376Z,25.19
2023-08-17T12:39:33.737Z,25.23
2023-08-17T12:40:33.528Z,25.26
2023-08-17T12:41:33.603Z,25.19
2023-08-17T12:42:33.903Z,25.22
2023-08-17T12:43:33.769Z,25.26
2023-08-17T12:44:33.841Z,25.38
2023-08-17T12:45:33.925Z,25.49
2023-08-17T12:46:34.146Z,25.45
2023-08-17T12:47:35.510Z,25.53
2023-08-17T12:48:36.036Z,25.61
2023-08-17T12:49:39.531Z,25.59
2023-08-17T12:50:34.337Z,25.64
2023-08-17T12:51:34.391Z,25.63
2023-08-17T12:52:34.491Z,25.57
2023-08-17T12:53:34.541Z,25.51
2023-08-17T12:54:34.674Z,25.45
2023-08-17T12:55:34.725Z,25.45
2023-08-17T12:56:34.820Z,25.54